Time;durP1;ratioP1;P1;durP2;ratioP2;P2;SDS_P1;SDS_P2;PMS_P1;PMS_P2;Temp;Humidity;BMP_temperature;BMP_pressure;BME280_temperature;BME280_humidity;BME280_pressure;Samples;Min_cycle;Max_cycle;Signal;HPM_P1;HPM_P2
2022/07/02 00:00:05;;;;;;;3.20;2.90;;;;;;;;;;5089605;28;20172;-90
2022/07/02 00:02:36;;;;;;;3.50;2.78;;;;;;;;;;5090729;28;20032;-90
2022/07/02 00:05:06;;;;;;;4.38;2.90;;;;;;;;;;5089871;28;21328;-89
2022/07/02 00:07:32;;;;;;;4.28;2.72;;;;;;;;;;5091026;28;20024;-89
2022/07/02 00:09:58;;;;;;;3.28;2.63;;;;;;;;;;5092139;28;20028;-89
2022/07/02 00:12:26;;;;;;;3.92;2.97;;;;;;;;;;5090887;28;20024;-88
2022/07/02 00:14:54;;;;;;;3.55;2.95;;;;;;;;;;5090746;28;20480;-89
2022/07/02 00:17:20;;;;;;;3.28;2.97;;;;;;;;;;5090506;28;20031;-89
2022/07/02 00:19:46;;;;;;;3.97;3.13;;;;;;;;;;5090768;28;20039;-88
2022/07/02 00:22:14;;;;;;;3.53;2.90;;;;;;;;;;5091422;28;20040;-87
2022/07/02 00:24:42;;;;;;;4.18;3.00;;;;;;;;;;5088043;28;20461;-89
2022/07/02 00:27:17;;;;;;;3.05;2.75;;;;;;;;;;5090436;28;20054;-89
2022/07/02 00:29:58;;;;;;;4.22;3.28;;;;;;;;;;5086763;28;20567;-90
2022/07/02 00:32:30;;;;;;;3.80;3.00;;;;;;;;;;5090543;28;20024;-92
2022/07/02 00:34:57;;;;;;;3.55;2.90;;;;;;;;;;5094227;28;20067;-90
2022/07/02 00:37:27;;;;;;;3.83;2.78;;;;;;;;;;5094489;28;20445;-88
2022/07/02 00:39:54;;;;;;;3.95;3.10;;;;;;;;;;5093938;28;20031;-89
2022/07/02 00:42:20;;;;;;;3.95;3.13;;;;;;;;;;5095214;28;20024;-90
2022/07/02 00:44:47;;;;;;;3.55;2.95;;;;;;;;;;5093907;28;20054;-90
2022/07/02 00:47:14;;;;;;;3.85;3.25;;;;;;;;;;5094394;28;20480;-90
2022/07/02 00:49:40;;;;;;;3.45;3.15;;;;;;;;;;5092066;28;20107;-91
2022/07/02 00:52:07;;;;;;;5.85;3.30;;;;;;;;;;5093917;28;20107;-91
2022/07/02 00:54:35;;;;;;;4.45;3.17;;;;;;;;;;5093988;28;20040;-89
2022/07/02 00:57:01;;;;;;;4.32;3.05;;;;;;;;;;5094088;28;20050;-90
2022/07/02 00:59:26;;;;;;;3.42;3.05;;;;;;;;;;5095314;28;20024;-90
2022/07/02 01:01:52;;;;;;;3.25;2.90;;;;;;;;;;5094742;28;20047;-88
2022/07/02 01:04:19;;;;;;;3.85;3.28;;;;;;;;;;5092023;28;20023;-90
2022/07/02 01:06:48;;;;;;;3.60;3.10;;;;;;;;;;5094348;28;20031;-91
2022/07/02 01:12:01;;;;;;;3.17;2.88;;;;;;;;;;5088950;28;20078;-89
2022/07/02 01:14:27;;;;;;;3.47;3.03;;;;;;;;;;5094766;28;20102;-91
2022/07/02 01:16:54;;;;;;;4.75;3.30;;;;;;;;;;5094719;28;20047;-90
2022/07/02 01:19:21;;;;;;;5.18;3.15;;;;;;;;;;5094606;28;20024;-91
2022/07/02 01:22:05;;;;;;;3.75;3.00;;;;;;;;;;5093672;28;20489;-90
2022/07/02 01:24:31;;;;;;;3.45;3.10;;;;;;;;;;5087861;28;20027;-89
2022/07/02 01:26:56;;;;;;;3.35;3.05;;;;;;;;;;5093310;28;20036;-90
2022/07/02 01:29:21;;;;;;;4.22;3.17;;;;;;;;;;5090078;28;20088;-91
2022/07/02 01:31:47;;;;;;;3.67;3.30;;;;;;;;;;5093191;28;20035;-91
2022/07/02 01:34:12;;;;;;;3.25;2.95;;;;;;;;;;5094350;28;20035;-90
2022/07/02 01:36:38;;;;;;;3.50;3.20;;;;;;;;;;5094065;28;20020;-90
2022/07/02 01:39:03;;;;;;;4.18;3.22;;;;;;;;;;5092081;28;20020;-90
2022/07/02 01:41:40;;;;;;;5.07;3.08;;;;;;;;;;5093214;28;20121;-91
2022/07/02 01:44:09;;;;;;;3.30;2.97;;;;;;;;;;5089306;28;20028;-90
2022/07/02 01:46:36;;;;;;;3.70;3.30;;;;;;;;;;5104706;28;20027;-91
2022/07/02 01:49:02;;;;;;;3.47;3.15;;;;;;;;;;5092642;28;20383;-90
2022/07/02 01:51:28;;;;;;;3.55;3.25;;;;;;;;;;5092425;28;20024;-90
2022/07/02 01:53:53;;;;;;;4.55;3.15;;;;;;;;;;5089842;28;20040;-90
2022/07/02 01:56:19;;;;;;;3.72;3.33;;;;;;;;;;5093790;28;20098;-90
2022/07/02 01:58:44;;;;;;;3.58;2.83;;;;;;;;;;5092845;28;20046;-90
2022/07/02 02:01:10;;;;;;;5.88;3.08;;;;;;;;;;5093592;28;20032;-91
2022/07/02 02:03:36;;;;;;;3.33;3.00;;;;;;;;;;5091976;28;20077;-90
2022/07/02 02:06:01;;;;;;;3.70;3.30;;;;;;;;;;5092207;28;20542;-90
2022/07/02 02:08:36;;;;;;;4.22;2.95;;;;;;;;;;5093238;28;20095;-89
2022/07/02 02:11:01;;;;;;;3.92;2.95;;;;;;;;;;5092414;28;20024;-89
2022/07/02 02:13:27;;;;;;;3.58;2.75;;;;;;;;;;5092984;28;20091;-91
2022/07/02 02:15:52;;;;;;;3.85;3.25;;;;;;;;;;5088039;28;20494;-90
2022/07/02 02:18:17;;;;;;;4.00;3.15;;;;;;;;;;5091651;28;20935;-90
2022/07/02 02:20:43;;;;;;;3.80;3.40;;;;;;;;;;5092413;28;20107;-89
2022/07/02 02:23:08;;;;;;;3.40;3.10;;;;;;;;;;5092163;28;20074;-89
2022/07/02 02:25:34;;;;;;;3.47;3.17;;;;;;;;;;5090611;28;20031;-90
2022/07/02 02:27:59;;;;;;;3.63;3.20;;;;;;;;;;5091491;28;20032;-89
2022/07/02 02:30:25;;;;;;;3.97;3.30;;;;;;;;;;5093179;28;20023;-90
2022/07/02 02:32:51;;;;;;;3.78;3.10;;;;;;;;;;5093114;28;20024;-90
2022/07/02 02:35:17;;;;;;;4.93;3.20;;;;;;;;;;5091281;28;20024;-90
2022/07/02 02:37:42;;;;;;;3.90;3.22;;;;;;;;;;5092446;28;20042;-90
2022/07/02 02:40:08;;;;;;;4.25;3.05;;;;;;;;;;5092589;28;20364;-89
2022/07/02 02:42:33;;;;;;;3.80;3.28;;;;;;;;;;5091913;28;20020;-91
2022/07/02 02:44:59;;;;;;;4.22;3.42;;;;;;;;;;5092417;28;20112;-89
2022/07/02 02:47:24;;;;;;;5.63;3.28;;;;;;;;;;5092263;28;20016;-89
2022/07/02 02:49:50;;;;;;;3.60;3.30;;;;;;;;;;5089715;28;20020;-88
2022/07/02 02:52:16;;;;;;;4.30;3.35;;;;;;;;;;5090931;28;20357;-87
2022/07/02 02:54:42;;;;;;;3.50;3.20;;;;;;;;;;5090168;28;20548;-89
2022/07/02 02:57:07;;;;;;;3.50;3.20;;;;;;;;;;5092799;28;20419;-89
2022/07/02 02:59:33;;;;;;;3.60;3.30;;;;;;;;;;5090988;28;20043;-89
2022/07/02 03:01:58;;;;;;;4.32;2.80;;;;;;;;;;5091506;28;20031;-90
2022/07/02 03:04:24;;;;;;;4.75;3.50;;;;;;;;;;5092285;28;20032;-88
2022/07/02 03:06:49;;;;;;;4.43;3.53;;;;;;;;;;5090854;28;20028;-89
2022/07/02 03:09:14;;;;;;;3.67;3.28;;;;;;;;;;5091070;28;20020;-89
2022/07/02 03:11:40;;;;;;;3.95;3.50;;;;;;;;;;5090810;28;20383;-89
2022/07/02 03:14:05;;;;;;;5.03;3.58;;;;;;;;;;5092353;28;20032;-90
2022/07/02 03:16:31;;;;;;;5.25;3.28;;;;;;;;;;5092376;28;20100;-90
2022/07/02 03:18:56;;;;;;;4.30;3.22;;;;;;;;;;5092315;28;20467;-89
2022/07/02 03:21:21;;;;;;;5.20;3.30;;;;;;;;;;5091419;28;20051;-90
2022/07/02 03:23:47;;;;;;;3.63;3.33;;;;;;;;;;5090710;28;20039;-89
2022/07/02 03:26:12;;;;;;;5.03;3.40;;;;;;;;;;5091969;28;20032;-88
2022/07/02 03:28:38;;;;;;;4.57;3.20;;;;;;;;;;5092077;28;20046;-88
2022/07/02 03:31:03;;;;;;;4.40;3.55;;;;;;;;;;5091925;28;20024;-87
2022/07/02 03:33:29;;;;;;;4.18;3.72;;;;;;;;;;5090958;28;20028;-87
2022/07/02 03:35:54;;;;;;;4.00;3.47;;;;;;;;;;5091946;28;20015;-89
2022/07/02 03:38:20;;;;;;;4.07;3.13;;;;;;;;;;5091623;28;20081;-89
2022/07/02 03:40:45;;;;;;;3.60;3.30;;;;;;;;;;5090705;28;20048;-89
2022/07/02 03:43:10;;;;;;;4.93;3.33;;;;;;;;;;5091986;28;20471;-89
2022/07/02 03:45:36;;;;;;;5.32;3.20;;;;;;;;;;5090076;28;20024;-89
2022/07/02 03:48:01;;;;;;;3.78;3.33;;;;;;;;;;5092007;28;20020;-90
2022/07/02 03:50:27;;;;;;;4.28;3.75;;;;;;;;;;5090958;28;20027;-90
2022/07/02 03:52:52;;;;;;;3.80;3.40;;;;;;;;;;5091756;28;20044;-89
2022/07/02 03:55:18;;;;;;;4.35;3.95;;;;;;;;;;5091856;28;20020;-90
2022/07/02 03:57:43;;;;;;;4.65;4.03;;;;;;;;;;5089922;28;20099;-90
2022/07/02 04:00:09;;;;;;;4.13;3.65;;;;;;;;;;5090380;28;20024;-89
2022/07/02 04:02:35;;;;;;;4.13;3.72;;;;;;;;;;5090556;28;20085;-89
2022/07/02 04:05:00;;;;;;;6.13;3.88;;;;;;;;;;5089550;28;20498;-89
2022/07/02 04:07:26;;;;;;;6.45;4.40;;;;;;;;;;5089889;28;21172;-88
2022/07/02 04:09:51;;;;;;;4.47;4.07;;;;;;;;;;5093859;28;20436;-89
2022/07/02 04:12:17;;;;;;;6.95;4.72;;;;;;;;;;5092454;28;20020;-88
2022/07/02 04:14:42;;;;;;;6.40;5.18;;;;;;;;;;5095571;28;20027;-89
2022/07/02 04:17:08;;;;;;;22.83;20.38;;;;;;;;;;5091732;28;20024;-89
2022/07/02 04:19:33;;;;;;;24.00;21.65;;;;;;;;;;5094072;28;20027;-88
2022/07/02 04:22:01;;;;;;;6.93;5.68;;;;;;;;;;5093374;28;20502;-88
2022/07/02 04:24:30;;;;;;;4.78;4.20;;;;;;;;;;5093436;28;20031;-90
2022/07/02 04:26:56;;;;;;;6.37;4.60;;;;;;;;;;5094252;28;20020;-88
2022/07/02 04:29:21;;;;;;;5.43;4.50;;;;;;;;;;5095053;28;20031;-89
2022/07/02 04:31:47;;;;;;;5.20;4.70;;;;;;;;;;5094374;28;20039;-89
2022/07/02 04:34:12;;;;;;;7.43;4.65;;;;;;;;;;5093528;28;20111;-90
2022/07/02 04:36:39;;;;;;;5.28;4.78;;;;;;;;;;5093793;28;20027;-89
2022/07/02 04:39:05;;;;;;;5.10;4.50;;;;;;;;;;5091014;28;20074;-89
2022/07/02 04:41:31;;;;;;;4.82;4.32;;;;;;;;;;5093248;28;20020;-90
2022/07/02 04:43:57;;;;;;;4.97;4.47;;;;;;;;;;5091779;28;20077;-90
2022/07/02 04:46:22;;;;;;;4.88;4.40;;;;;;;;;;5093395;28;20016;-89
2022/07/02 04:48:48;;;;;;;5.03;4.53;;;;;;;;;;5094423;28;20056;-90
2022/07/02 04:51:13;;;;;;;4.88;4.47;;;;;;;;;;5092868;28;20036;-89
2022/07/02 04:53:39;;;;;;;4.57;4.18;;;;;;;;;;5093223;28;20048;-88
2022/07/02 04:56:04;;;;;;;6.25;4.50;;;;;;;;;;5094604;28;20016;-88
2022/07/02 04:58:29;;;;;;;5.80;4.10;;;;;;;;;;5094482;28;20028;-89
2022/07/02 05:00:55;;;;;;;8.77;4.82;;;;;;;;;;5093755;28;20487;-90
2022/07/02 05:03:20;;;;;;;5.93;3.97;;;;;;;;;;5094288;28;20039;-88
2022/07/02 05:05:46;;;;;;;4.82;4.35;;;;;;;;;;5094203;28;20039;-89
2022/07/02 05:08:11;;;;;;;4.80;4.32;;;;;;;;;;5092871;28;20024;-87
2022/07/02 05:10:37;;;;;;;9.00;5.00;;;;;;;;;;5093142;28;20066;-86
2022/07/02 05:13:04;;;;;;;8.75;4.70;;;;;;;;;;5091912;28;20020;-88
2022/07/02 05:15:30;;;;;;;5.30;4.80;;;;;;;;;;5093986;28;20020;-87
2022/07/02 05:17:55;;;;;;;5.88;5.28;;;;;;;;;;5093361;28;20095;-87
2022/07/02 05:20:21;;;;;;;6.53;5.93;;;;;;;;;;5090511;28;20100;-89
2022/07/02 05:22:46;;;;;;;5.93;5.40;;;;;;;;;;5092729;28;20032;-89
2022/07/02 05:25:12;;;;;;;6.70;5.93;;;;;;;;;;5091505;28;20023;-90
2022/07/02 05:27:37;;;;;;;6.28;5.68;;;;;;;;;;5092515;28;20032;-86
2022/07/02 05:30:03;;;;;;;7.07;5.45;;;;;;;;;;5093174;28;20020;-89
2022/07/02 05:32:29;;;;;;;6.07;5.38;;;;;;;;;;5093152;28;20100;-89
2022/07/02 05:34:54;;;;;;;6.70;5.70;;;;;;;;;;5093372;28;20032;-88
2022/07/02 05:37:20;;;;;;;7.68;5.88;;;;;;;;;;5090756;28;21014;-89
2022/07/02 05:39:45;;;;;;;8.13;5.78;;;;;;;;;;5091999;28;20155;-88
2022/07/02 05:42:10;;;;;;;6.75;5.40;;;;;;;;;;5093630;28;20471;-86
2022/07/02 05:44:36;;;;;;;5.53;5.03;;;;;;;;;;5093143;28;20031;-87
2022/07/02 05:47:01;;;;;;;6.85;5.40;;;;;;;;;;5091686;28;20035;-87
2022/07/02 05:49:27;;;;;;;7.13;5.43;;;;;;;;;;5093208;28;20020;-87
2022/07/02 05:51:52;;;;;;;7.43;6.03;;;;;;;;;;5091305;28;20035;-86
2022/07/02 05:54:17;;;;;;;7.32;5.97;;;;;;;;;;5091925;28;20056;-85
2022/07/02 05:56:43;;;;;;;8.27;6.20;;;;;;;;;;5093090;28;20349;-86
2022/07/02 05:59:08;;;;;;;6.50;5.90;;;;;;;;;;5093221;28;20367;-87
2022/07/02 06:01:34;;;;;;;6.13;5.60;;;;;;;;;;5092811;28;20451;-88
2022/07/02 06:03:59;;;;;;;8.45;5.82;;;;;;;;;;5091644;28;20036;-87
2022/07/02 06:09:08;;;;;;;10.48;6.53;;;;;;;;;;5093160;28;20433;-89
2022/07/02 06:11:34;;;;;;;6.38;5.70;;;;;;;;;;5088890;28;20024;-86
2022/07/02 06:13:59;;;;;;;6.43;5.70;;;;;;;;;;5091381;28;20383;-85
2022/07/02 06:16:27;;;;;;;6.72;5.78;;;;;;;;;;5090325;28;20016;-84
2022/07/02 06:18:53;;;;;;;6.32;5.72;;;;;;;;;;5088322;28;20696;-84
2022/07/02 06:21:18;;;;;;;6.43;5.63;;;;;;;;;;5088421;28;20020;-84
2022/07/02 06:23:44;;;;;;;7.32;5.05;;;;;;;;;;5090088;28;20035;-85
2022/07/02 06:26:09;;;;;;;7.30;5.72;;;;;;;;;;5089591;28;20024;-84
2022/07/02 06:28:35;;;;;;;5.78;5.15;;;;;;;;;;5091183;28;20016;-85
2022/07/02 06:31:00;;;;;;;5.82;5.13;;;;;;;;;;5090030;28;20074;-85
2022/07/02 06:33:25;;;;;;;6.43;5.20;;;;;;;;;;5088397;28;20020;-85
2022/07/02 06:35:51;;;;;;;12.98;10.48;;;;;;;;;;5088854;28;20021;-84
2022/07/02 06:38:16;;;;;;;11.60;9.73;;;;;;;;;;5090720;28;20107;-86
2022/07/02 06:40:42;;;;;;;11.63;10.43;;;;;;;;;;5091390;28;20032;-86
2022/07/02 06:43:07;;;;;;;7.18;6.53;;;;;;;;;;5090448;28;20016;-84
2022/07/02 06:45:33;;;;;;;5.97;5.20;;;;;;;;;;5090397;28;20375;-85
2022/07/02 06:48:00;;;;;;;7.68;4.97;;;;;;;;;;5086879;28;20021;-85
2022/07/02 06:50:28;;;;;;;6.75;5.63;;;;;;;;;;5090480;28;20024;-84
2022/07/02 06:52:53;;;;;;;7.57;5.25;;;;;;;;;;5086559;28;20089;-85
2022/07/02 06:55:20;;;;;;;6.30;5.32;;;;;;;;;;5090528;28;20880;-88
2022/07/02 06:57:49;;;;;;;5.88;5.38;;;;;;;;;;5089581;28;20024;-85
2022/07/02 07:00:15;;;;;;;8.30;5.45;;;;;;;;;;5089407;28;20092;-87
2022/07/02 07:02:41;;;;;;;5.50;4.93;;;;;;;;;;5091427;28;20111;-88
2022/07/02 07:05:07;;;;;;;6.97;5.10;;;;;;;;;;5091611;28;20102;-86
2022/07/02 07:07:34;;;;;;;7.28;5.10;;;;;;;;;;5087297;28;20533;-85
2022/07/02 07:10:00;;;;;;;6.88;5.32;;;;;;;;;;5087797;28;21141;-86
2022/07/02 07:12:25;;;;;;;5.22;4.72;;;;;;;;;;5089646;28;20024;-86
2022/07/02 07:14:51;;;;;;;6.28;5.22;;;;;;;;;;5089646;28;20159;-86
2022/07/02 07:17:17;;;;;;;9.85;5.63;;;;;;;;;;5088416;28;20376;-87
2022/07/02 07:19:42;;;;;;;5.95;5.35;;;;;;;;;;5090456;28;20039;-86
2022/07/02 07:22:09;;;;;;;6.10;5.50;;;;;;;;;;5086798;28;20040;-82
2022/07/02 07:24:34;;;;;;;6.72;5.75;;;;;;;;;;5091188;28;20688;-86
2022/07/02 07:26:59;;;;;;;6.60;6.00;;;;;;;;;;5088640;28;20042;-85
2022/07/02 07:29:25;;;;;;;6.50;5.05;;;;;;;;;;5087332;28;20124;-85
2022/07/02 07:31:54;;;;;;;9.05;5.60;;;;;;;;;;5089499;28;20068;-86
2022/07/02 07:34:20;;;;;;;6.28;5.40;;;;;;;;;;5089470;28;20105;-88
2022/07/02 07:36:45;;;;;;;6.45;5.22;;;;;;;;;;5088336;28;20048;-86
2022/07/02 07:39:11;;;;;;;7.93;5.47;;;;;;;;;;5090304;28;20042;-85
2022/07/02 07:41:36;;;;;;;5.20;4.70;;;;;;;;;;5091397;28;20036;-87
2022/07/02 07:44:03;;;;;;;6.53;5.80;;;;;;;;;;5094767;28;20024;-88
2022/07/02 07:46:28;;;;;;;6.32;5.72;;;;;;;;;;5094656;28;20101;-86
2022/07/02 07:48:54;;;;;;;6.10;5.50;;;;;;;;;;5095192;28;20417;-87
2022/07/02 07:51:19;;;;;;;6.60;5.90;;;;;;;;;;5091986;28;20049;-85
2022/07/02 07:53:45;;;;;;;6.38;5.28;;;;;;;;;;5090662;28;20047;-84
2022/07/02 07:56:18;;;;;;;10.57;5.65;;;;;;;;;;5094513;28;20027;-86
2022/07/02 07:58:44;;;;;;;6.18;5.57;;;;;;;;;;5092428;28;20028;-87
2022/07/02 08:01:10;;;;;;;5.80;5.20;;;;;;;;;;5095733;28;20360;-84
2022/07/02 08:03:35;;;;;;;6.93;5.40;;;;;;;;;;5093358;28;20055;-85
2022/07/02 08:06:03;;;;;;;6.35;5.50;;;;;;;;;;5093138;28;20028;-86
2022/07/02 08:08:29;;;;;;;5.90;5.40;;;;;;;;;;5090057;28;20024;-82
2022/07/02 08:10:55;;;;;;;7.80;5.40;;;;;;;;;;5094595;28;20031;-84
2022/07/02 08:13:20;;;;;;;5.85;5.10;;;;;;;;;;5092198;28;20032;-84
2022/07/02 08:15:46;;;;;;;6.32;5.35;;;;;;;;;;5093497;28;20103;-84
2022/07/02 08:18:12;;;;;;;5.70;5.07;;;;;;;;;;5094241;28;20056;-84
2022/07/02 08:20:37;;;;;;;5.45;4.95;;;;;;;;;;5095131;28;20395;-84
2022/07/02 08:23:03;;;;;;;6.65;5.10;;;;;;;;;;5093833;28;20128;-83
2022/07/02 08:25:30;;;;;;;5.43;4.85;;;;;;;;;;5095082;28;20043;-84
2022/07/02 08:27:55;;;;;;;6.30;4.82;;;;;;;;;;5093689;28;20052;-87
2022/07/02 08:30:21;;;;;;;5.20;4.65;;;;;;;;;;5095050;28;20056;-84
2022/07/02 08:32:46;;;;;;;6.22;4.50;;;;;;;;;;5094929;28;20528;-84
2022/07/02 08:35:12;;;;;;;4.90;4.40;;;;;;;;;;5091417;28;20051;-86
2022/07/02 08:37:37;;;;;;;5.18;4.63;;;;;;;;;;5094800;28;20027;-85
2022/07/02 08:40:03;;;;;;;5.20;4.80;;;;;;;;;;5094778;28;20114;-87
2022/07/02 08:42:32;;;;;;;5.25;4.75;;;;;;;;;;5094005;28;20020;-85
2022/07/02 08:45:00;;;;;;;5.60;5.03;;;;;;;;;;5090813;28;20067;-86
2022/07/02 08:47:26;;;;;;;7.00;4.93;;;;;;;;;;5093469;28;20758;-86
2022/07/02 08:49:53;;;;;;;5.50;4.32;;;;;;;;;;5089921;28;20418;-84
2022/07/02 08:52:21;;;;;;;4.85;4.15;;;;;;;;;;5094358;28;20024;-87
2022/07/02 08:54:47;;;;;;;5.00;3.92;;;;;;;;;;5089998;28;20430;-85
2022/07/02 08:57:13;;;;;;;4.15;3.80;;;;;;;;;;5093044;28;20024;-87
2022/07/02 08:59:40;;;;;;;4.30;3.90;;;;;;;;;;5092332;28;20031;-86
2022/07/02 09:02:10;;;;;;;5.90;3.58;;;;;;;;;;5091120;28;20039;-85
2022/07/02 09:04:39;;;;;;;3.70;3.30;;;;;;;;;;5093807;28;20028;-85
2022/07/02 09:07:06;;;;;;;7.13;3.13;;;;;;;;;;5088679;28;20361;-84
2022/07/02 09:09:33;;;;;;;4.95;3.55;;;;;;;;;;5091289;28;20043;-84
2022/07/02 09:11:59;;;;;;;3.78;3.30;;;;;;;;;;5092102;28;20038;-85
2022/07/02 09:14:24;;;;;;;3.63;3.33;;;;;;;;;;5093659;28;20024;-84
2022/07/02 09:16:50;;;;;;;4.63;3.50;;;;;;;;;;5089656;28;20173;-87
2022/07/02 09:19:18;;;;;;;4.78;3.65;;;;;;;;;;5092471;28;20475;-84
2022/07/02 09:21:52;;;;;;;3.83;3.53;;;;;;;;;;5092289;28;20066;-83
2022/07/02 09:24:37;;;;;;;4.30;2.75;;;;;;;;;;5090964;28;20024;-84
2022/07/02 09:27:04;;;;;;;5.22;3.50;;;;;;;;;;5092335;28;20028;-85
2022/07/02 09:29:49;;;;;;;3.63;2.70;;;;;;;;;;5091720;28;20101;-86
2022/07/02 09:32:16;;;;;;;4.13;2.80;;;;;;;;;;5090566;28;20024;-84
2022/07/02 09:34:44;;;;;;;3.92;3.33;;;;;;;;;;5092168;28;20101;-85
2022/07/02 09:37:17;;;;;;;4.57;3.65;;;;;;;;;;5092682;28;20020;-82
2022/07/02 09:39:44;;;;;;;5.00;3.30;;;;;;;;;;5093161;28;20024;-83
2022/07/02 09:42:46;;;;;;;3.63;3.33;;;;;;;;;;5090941;28;20021;-82
2022/07/02 09:45:12;;;;;;;4.38;3.42;;;;;;;;;;5065322;28;20040;-82
2022/07/02 09:47:40;;;;;;;7.25;3.60;;;;;;;;;;5083503;28;20029;-84
2022/07/02 09:50:08;;;;;;;4.85;3.60;;;;;;;;;;5091113;28;20114;-84
2022/07/02 09:52:33;;;;;;;4.43;3.92;;;;;;;;;;5092228;28;20546;-86
2022/07/02 09:55:01;;;;;;;7.95;3.95;;;;;;;;;;5092955;28;20036;-84
2022/07/02 09:57:26;;;;;;;5.18;3.80;;;;;;;;;;5085138;28;20095;-84
2022/07/02 09:59:53;;;;;;;4.05;3.55;;;;;;;;;;5088264;28;20142;-82
2022/07/02 10:02:25;;;;;;;3.55;3.25;;;;;;;;;;5091950;28;20027;-84
2022/07/02 10:04:56;;;;;;;5.45;3.60;;;;;;;;;;5091178;28;20036;-83
2022/07/02 10:07:22;;;;;;;5.57;3.45;;;;;;;;;;5092496;28;20024;-84
2022/07/02 10:09:51;;;;;;;4.47;3.20;;;;;;;;;;5090680;28;20020;-83
2022/07/02 10:12:19;;;;;;;4.53;3.20;;;;;;;;;;5091609;28;20043;-85
2022/07/02 10:14:45;;;;;;;3.92;3.50;;;;;;;;;;5091369;28;20146;-84
2022/07/02 10:17:12;;;;;;;5.07;3.45;;;;;;;;;;5089355;28;20027;-85
2022/07/02 10:19:38;;;;;;;4.57;3.50;;;;;;;;;;5091394;28;20031;-85
2022/07/02 10:22:05;;;;;;;5.80;3.88;;;;;;;;;;5087415;28;20031;-83
2022/07/02 10:24:32;;;;;;;3.97;3.08;;;;;;;;;;5087500;28;20035;-83
2022/07/02 10:26:59;;;;;;;4.45;3.30;;;;;;;;;;5088552;28;20035;-86
2022/07/02 10:29:26;;;;;;;4.38;3.33;;;;;;;;;;5092065;28;20096;-83
2022/07/02 10:32:06;;;;;;;12.30;4.45;;;;;;;;;;5089062;28;20395;-86
2022/07/02 10:34:42;;;;;;;5.95;3.22;;;;;;;;;;5088196;28;20055;-83
2022/07/02 10:37:08;;;;;;;5.85;3.47;;;;;;;;;;5090077;28;20074;-85
2022/07/02 10:39:39;;;;;;;5.63;3.30;;;;;;;;;;5085647;28;20020;-83
2022/07/02 10:42:05;;;;;;;4.85;3.20;;;;;;;;;;5088285;28;20170;-82
2022/07/02 10:44:41;;;;;;;5.40;3.45;;;;;;;;;;5089904;28;20118;-87
2022/07/02 10:47:17;;;;;;;6.63;3.75;;;;;;;;;;5088703;28;20032;-85
2022/07/02 10:49:43;;;;;;;4.55;3.97;;;;;;;;;;5087597;28;20131;-84
2022/07/02 10:52:08;;;;;;;4.43;3.47;;;;;;;;;;5090005;28;20031;-85
2022/07/02 10:54:34;;;;;;;3.75;3.35;;;;;;;;;;5090708;28;20066;-84
2022/07/02 10:56:59;;;;;;;4.03;3.15;;;;;;;;;;5091665;28;20047;-87
2022/07/02 10:59:27;;;;;;;4.38;3.10;;;;;;;;;;5091480;28;20126;-85
2022/07/02 11:02:04;;;;;;;5.38;3.70;;;;;;;;;;5091652;28;20490;-83
2022/07/02 11:04:29;;;;;;;4.75;3.33;;;;;;;;;;5088886;28;20031;-85
2022/07/02 11:07:11;;;;;;;6.22;4.63;;;;;;;;;;5091476;28;20043;-83
2022/07/02 11:09:50;;;;;;;8.32;3.33;;;;;;;;;;5091213;28;20023;-83
2022/07/02 11:12:20;;;;;;;;;;;;;;;;;;5091192;28;20020;-83
2022/07/02 11:14:56;;;;;;;3.05;2.72;;;;;;;;;;5091378;28;19912;-82
2022/07/02 11:17:25;;;;;;;8.18;3.53;;;;;;;;;;5090180;28;20353;-83
2022/07/02 11:19:54;;;;;;;3.47;3.00;;;;;;;;;;5091058;28;20055;-84
2022/07/02 11:22:22;;;;;;;3.90;3.45;;;;;;;;;;5091045;28;20044;-82
2022/07/02 11:24:49;;;;;;;3.72;3.00;;;;;;;;;;5090630;28;20035;-86
2022/07/02 11:27:15;;;;;;;5.38;3.75;;;;;;;;;;5089438;28;20028;-82
2022/07/02 11:29:50;;;;;;;4.95;3.38;;;;;;;;;;5088107;28;20028;-82
2022/07/02 11:32:16;;;;;;;5.75;3.60;;;;;;;;;;5091439;28;20024;-86
2022/07/02 11:34:41;;;;;;;4.30;3.08;;;;;;;;;;5091545;28;20028;-85
2022/07/02 11:37:07;;;;;;;4.68;3.13;;;;;;;;;;5091284;28;20027;-84
2022/07/02 11:39:32;;;;;;;3.80;3.17;;;;;;;;;;5089807;28;20024;-85
2022/07/02 11:41:58;;;;;;;4.20;3.47;;;;;;;;;;5091452;28;20028;-87
2022/07/02 11:44:25;;;;;;;4.53;3.58;;;;;;;;;;5090852;28;20027;-84
2022/07/02 11:46:58;;;;;;;5.65;3.35;;;;;;;;;;5091085;28;20472;-86
2022/07/02 11:49:26;;;;;;;3.40;2.90;;;;;;;;;;5091000;28;20024;-84
2022/07/02 11:51:53;;;;;;;5.25;3.47;;;;;;;;;;5090428;28;20047;-83
2022/07/02 11:54:20;;;;;;;4.13;3.42;;;;;;;;;;5090076;28;20051;-86
2022/07/02 11:56:47;;;;;;;6.20;3.47;;;;;;;;;;5090284;28;20012;-86
2022/07/02 11:59:15;;;;;;;3.13;2.83;;;;;;;;;;5090817;28;20028;-87
2022/07/02 12:01:43;;;;;;;3.93;3.00;;;;;;;;;;5090591;28;20032;-85
2022/07/02 12:04:11;;;;;;;5.20;3.10;;;;;;;;;;5089194;28;20309;-86
2022/07/02 12:06:39;;;;;;;5.20;3.30;;;;;;;;;;5088344;28;20075;-86
2022/07/02 12:09:08;;;;;;;4.40;3.55;;;;;;;;;;5090834;28;20256;-88
2022/07/02 12:11:35;;;;;;;4.18;3.03;;;;;;;;;;5090051;28;20024;-85
2022/07/02 12:14:01;;;;;;;5.43;3.42;;;;;;;;;;5089296;28;20089;-86
2022/07/02 12:16:28;;;;;;;40.40;7.90;;;;;;;;;;5090933;28;20476;-87
2022/07/02 12:18:57;;;;;;;0.40;0.35;;;;;;;;;;5089415;28;20117;-87
2022/07/02 12:21:29;;;;;;;0.32;0.32;;;;;;;;;;5089815;28;20597;-84
2022/07/02 12:23:55;;;;;;;0.10;0.10;;;;;;;;;;5087249;28;20089;-84
2022/07/02 12:26:25;;;;;;;1.27;0.98;;;;;;;;;;5090844;28;20071;-84
2022/07/02 12:31:43;;;;;;;0.03;0.03;;;;;;;;;;5093152;28;20102;-84
2022/07/02 12:34:08;;;;;;;0.70;0.63;;;;;;;;;;5094379;28;20024;-83
2022/07/02 12:36:44;;;;;;;0.40;0.40;;;;;;;;;;5093711;28;20375;-82
2022/07/02 12:39:09;;;;;;;0.98;0.65;;;;;;;;;;5092917;28;20414;-83
2022/07/02 12:41:38;;;;;;;0.25;0.25;;;;;;;;;;5092467;28;20070;-81
2022/07/02 12:44:04;;;;;;;0.60;0.60;;;;;;;;;;5090681;28;20377;-81
2022/07/02 12:46:29;;;;;;;0.38;0.38;;;;;;;;;;5093464;28;20035;-82
2022/07/02 12:48:55;;;;;;;1.58;1.48;;;;;;;;;;5092370;28;20059;-82
2022/07/02 12:51:21;;;;;;;0.40;0.40;;;;;;;;;;5090105;28;20189;-83
2022/07/02 12:53:56;;;;;;;0.63;0.63;;;;;;;;;;5094064;28;20048;-83
2022/07/02 12:56:21;;;;;;;0.73;0.73;;;;;;;;;;5093949;28;20023;-80
2022/07/02 12:58:47;;;;;;;0.77;0.75;;;;;;;;;;5092664;28;20034;-80
2022/07/02 13:01:12;;;;;;;0.55;0.55;;;;;;;;;;5094371;28;20502;-80
2022/07/02 13:03:38;;;;;;;0.95;0.63;;;;;;;;;;5092322;28;20036;-81
2022/07/02 13:06:04;;;;;;;0.73;0.73;;;;;;;;;;5093831;28;20383;-81
2022/07/02 13:08:30;;;;;;;0.50;0.35;;;;;;;;;;5094161;28;20031;-81
2022/07/02 13:10:57;;;;;;;0.50;0.50;;;;;;;;;;5092516;28;20024;-80
2022/07/02 13:13:23;;;;;;;1.30;0.90;;;;;;;;;;5094072;28;20035;-80
2022/07/02 13:15:49;;;;;;;0.95;0.88;;;;;;;;;;5092325;28;20043;-81
2022/07/02 13:18:15;;;;;;;0.98;0.65;;;;;;;;;;5093368;28;20019;-82
2022/07/02 13:20:40;;;;;;;0.30;0.30;;;;;;;;;;5092307;28;20051;-79
2022/07/02 13:23:06;;;;;;;0.55;0.55;;;;;;;;;;5093452;28;20020;-81
2022/07/02 13:25:31;;;;;;;0.35;0.35;;;;;;;;;;5089776;28;20024;-79
2022/07/02 13:27:57;;;;;;;0.22;0.22;;;;;;;;;;5093125;28;20507;-79
2022/07/02 13:30:22;;;;;;;0.38;0.35;;;;;;;;;;5092560;28;20098;-81
2022/07/02 13:32:48;;;;;;;0.70;0.65;;;;;;;;;;5092789;28;20042;-80
2022/07/02 13:35:14;;;;;;;1.42;1.33;;;;;;;;;;5088859;28;20494;-81
2022/07/02 13:37:40;;;;;;;0.45;0.30;;;;;;;;;;5091556;28;20031;-82
2022/07/02 13:40:09;;;;;;;0.45;0.35;;;;;;;;;;5087735;28;20039;-81
2022/07/02 13:42:35;;;;;;;2.05;0.93;;;;;;;;;;5091647;28;20490;-82
2022/07/02 13:45:02;;;;;;;0.68;0.50;;;;;;;;;;5089921;28;20047;-81
2022/07/02 13:47:27;;;;;;;0.47;0.47;;;;;;;;;;5090628;28;20120;-82
2022/07/02 13:49:53;;;;;;;0.10;0.10;;;;;;;;;;5088879;28;20111;-82
2022/07/02 13:52:18;;;;;;;0.60;0.30;;;;;;;;;;5091447;28;20020;-82
2022/07/02 13:54:44;;;;;;;0.95;0.60;;;;;;;;;;5092779;28;20031;-82
2022/07/02 13:57:12;;;;;;;0.10;0.10;;;;;;;;;;5087548;28;20020;-82
2022/07/02 13:59:38;;;;;;;0.23;0.23;;;;;;;;;;5090759;28;20036;-84
2022/07/02 14:02:03;;;;;;;0.10;0.10;;;;;;;;;;5088982;28;20020;-83
2022/07/02 14:04:29;;;;;;;0.35;0.35;;;;;;;;;;5084761;28;20472;-84
2022/07/02 14:06:54;;;;;;;0.17;0.15;;;;;;;;;;5089138;28;20020;-84
2022/07/02 14:09:19;;;;;;;0.57;0.50;;;;;;;;;;5090574;28;20085;-85
2022/07/02 14:11:45;;;;;;;2.38;0.32;;;;;;;;;;5087852;28;20039;-86
2022/07/02 14:14:11;;;;;;;1.77;0.93;;;;;;;;;;5089798;28;20027;-86
2022/07/02 14:16:36;;;;;;;0.60;0.30;;;;;;;;;;5090491;28;20028;-87
2022/07/02 14:19:02;;;;;;;0.10;0.10;;;;;;;;;;5091318;28;20051;-85
2022/07/02 14:21:27;;;;;;;0.73;0.28;;;;;;;;;;5089287;28;20028;-86
2022/07/02 14:23:53;;;;;;;0.47;0.47;;;;;;;;;;5091653;28;20035;-83
2022/07/02 14:26:18;;;;;;;0.10;0.10;;;;;;;;;;5091407;28;20077;-86
2022/07/02 14:28:44;;;;;;;0.13;0.13;;;;;;;;;;5088335;28;20107;-84
2022/07/02 14:31:13;;;;;;;0.22;0.22;;;;;;;;;;5089943;28;20032;-85
2022/07/02 14:33:39;;;;;;;0.38;0.32;;;;;;;;;;5090002;28;20035;-86
2022/07/02 14:36:05;;;;;;;0.10;0.10;;;;;;;;;;5088158;28;20024;-86
2022/07/02 14:38:30;;;;;;;0.10;0.10;;;;;;;;;;5091201;28;20057;-86
2022/07/02 14:43:41;;;;;;;0.20;0.20;;;;;;;;;;5089867;28;20081;-88
2022/07/02 14:46:07;;;;;;;0.50;0.50;;;;;;;;;;5090676;28;20336;-87
2022/07/02 14:48:33;;;;;;;0.50;0.50;;;;;;;;;;5092461;28;20024;-86
2022/07/02 14:50:58;;;;;;;0.30;0.30;;;;;;;;;;5087364;28;20027;-87